Aviation Digital Data Service (ADDS)

Output produced by METARs form (1536 UTC 27 May 2017)
found at http://aviationweather.gov/adds/metars/
 
KCRG 271120Z 2712/2812 20003KT P6SM SKC 
     FM271400 24006KT P6SM SKC 
     FM271900 17007KT P6SM SKC 
     FM280500 23005KT P6SM FEW250